Terminal Aerodrome Forecast
Issued by NWS Sterling, VA

Current Version | Previous Version | Graphics & Text | Print | Product List | Glossary Off
Versions: 1 2 3 4 5 6 7 8 9 10 11 12

000
FTUS41 KLWX 211100
TAFMRB
TAF
KMRB 211138Z 2112/2212 VRB04KT P6SM BKN060
     FM211700 VRB04KT P6SM SCT050
     FM220900 VRB04KT P6SM BKN050=

USA.gov is the U.S. government's official web portal to all federal, state and local government web resources and services.